Time;durP1;ratioP1;P1;durP2;ratioP2;P2;SDS_P1;SDS_P2;PMS_P1;PMS_P2;Temp;Humidity;BMP_temperature;BMP_pressure;BME280_temperature;BME280_humidity;BME280_pressure;Samples;Min_cycle;Max_cycle;Signal;HPM_P1;HPM_P2
2024/02/18 00:00:33;;;;;;;;;13.75;13.00;;;;;;;;5075706;28;45635;-69
2024/02/18 00:02:59;;;;;;;;;14.50;13.50;;;;;;;;5077374;27;46182;-69
2024/02/18 00:05:24;;;;;;;;;9.25;8.50;;;;;;;;5077408;28;45313;-69
2024/02/18 00:07:49;;;;;;;;;10.33;10.33;;;;;;;;5076821;27;45463;-69
2024/02/18 00:10:14;;;;;;;;;15.00;12.33;;;;;;;;5076675;28;45366;-69
2024/02/18 00:12:40;;;;;;;;;12.00;12.00;;;;;;;;5080701;27;46489;-69
2024/02/18 00:15:05;;;;;;;;;11.00;11.00;;;;;;;;5095510;27;45492;-69
2024/02/18 00:17:30;;;;;;;;;11.50;11.25;;;;;;;;5085902;27;45418;-69
2024/02/18 00:19:55;;;;;;;;;12.33;12.33;;;;;;;;5075320;27;45373;-69
2024/02/18 00:22:20;;;;;;;;;11.00;11.00;;;;;;;;5077973;27;45322;-69
2024/02/18 00:24:46;;;;;;;;;10.33;10.33;;;;;;;;5078424;27;46353;-69
2024/02/18 00:27:11;;;;;;;;;11.50;8.75;;;;;;;;5078311;27;45463;-69
2024/02/18 00:29:36;;;;;;;;;10.75;10.75;;;;;;;;5078354;28;45285;-69
2024/02/18 00:32:02;;;;;;;;;11.33;11.00;;;;;;;;5078121;27;46413;-69
2024/02/18 00:34:29;;;;;;;;;12.00;11.25;;;;;;;;5077889;27;45335;-69
2024/02/18 00:36:55;;;;;;;;;11.50;9.75;;;;;;;;5078417;27;45385;-69
2024/02/18 00:39:20;;;;;;;;;11.33;8.00;;;;;;;;5078143;27;45420;-69
2024/02/18 00:41:45;;;;;;;;;7.67;7.67;;;;;;;;5078024;27;46214;-69
2024/02/18 00:44:10;;;;;;;;;11.50;11.25;;;;;;;;5075558;27;45377;-69
2024/02/18 00:46:36;;;;;;;;;10.67;10.67;;;;;;;;5081595;27;45462;-69
2024/02/18 00:49:01;;;;;;;;;10.25;8.50;;;;;;;;5081555;27;45367;-69
2024/02/18 00:51:26;;;;;;;;;12.00;10.00;;;;;;;;5080851;27;46102;-69
2024/02/18 00:53:51;;;;;;;;;7.00;6.67;;;;;;;;5081584;27;45523;-69
2024/02/18 00:56:17;;;;;;;;;13.00;10.75;;;;;;;;5080768;27;45381;-68
2024/02/18 00:58:42;;;;;;;;;12.33;11.33;;;;;;;;5081627;27;45356;-69
2024/02/18 01:01:07;;;;;;;;;9.67;7.00;;;;;;;;5081223;27;46420;-69
2024/02/18 01:03:32;;;;;;;;;13.75;11.00;;;;;;;;5081350;27;45648;-69
2024/02/18 01:05:58;;;;;;;;;8.00;8.00;;;;;;;;5081413;28;45224;-69
2024/02/18 01:08:23;;;;;;;;;10.00;10.00;;;;;;;;5081384;27;45592;-69
2024/02/18 01:10:48;;;;;;;;;11.00;9.67;;;;;;;;5079541;27;46139;-69
2024/02/18 01:13:13;;;;;;;;;10.67;10.33;;;;;;;;5082283;27;45410;-69
2024/02/18 01:15:39;;;;;;;;;12.33;12.00;;;;;;;;5086201;27;45619;-69
2024/02/18 01:18:04;;;;;;;;;13.00;10.00;;;;;;;;5081113;27;45411;-69
2024/02/18 01:20:29;;;;;;;;;11.67;11.00;;;;;;;;5077747;27;45466;-69
2024/02/18 01:22:54;;;;;;;;;10.67;8.33;;;;;;;;5080808;27;45701;-69
2024/02/18 01:25:20;;;;;;;;;11.00;8.67;;;;;;;;5081168;28;45374;-69
2024/02/18 01:27:46;;;;;;;;;10.00;10.00;;;;;;;;5079606;27;45386;-69
2024/02/18 01:30:12;;;;;;;;;9.00;9.00;;;;;;;;5080601;27;46050;-69
2024/02/18 01:32:37;;;;;;;;;9.25;9.25;;;;;;;;5080810;27;45709;-69
2024/02/18 01:35:02;;;;;;;;;12.67;10.00;;;;;;;;5079656;27;45755;-69
2024/02/18 01:37:28;;;;;;;;;14.50;12.25;;;;;;;;5080639;27;45485;-69
2024/02/18 01:39:53;;;;;;;;;14.00;12.33;;;;;;;;5080101;27;45635;-69
2024/02/18 01:42:18;;;;;;;;;9.00;9.00;;;;;;;;5082866;27;45519;-69
2024/02/18 01:44:44;;;;;;;;;12.00;11.33;;;;;;;;5080951;27;45455;-69
2024/02/18 01:47:09;;;;;;;;;10.75;8.25;;;;;;;;5080524;27;45512;-69
2024/02/18 01:49:34;;;;;;;;;10.00;9.75;;;;;;;;5080673;28;45472;-69
2024/02/18 01:52:00;;;;;;;;;9.00;9.00;;;;;;;;5078611;27;45518;-69
2024/02/18 01:54:32;;;;;;;;;9.25;9.25;;;;;;;;5079706;27;45588;-69
2024/02/18 01:56:58;;;;;;;;;11.25;10.00;;;;;;;;5079822;27;45422;-69
2024/02/18 01:59:24;;;;;;;;;10.00;9.50;;;;;;;;5080540;27;45507;-69
2024/02/18 02:01:49;;;;;;;;;7.25;7.00;;;;;;;;5078013;27;45685;-69
2024/02/18 02:04:14;;;;;;;;;11.00;10.00;;;;;;;;5080564;27;45692;-69
2024/02/18 02:06:40;;;;;;;;;9.67;9.33;;;;;;;;5080284;27;45291;-69
2024/02/18 02:09:05;;;;;;;;;11.00;10.00;;;;;;;;5080417;27;45908;-69
2024/02/18 02:11:30;;;;;;;;;11.33;10.33;;;;;;;;5078655;27;45552;-69
2024/02/18 02:13:55;;;;;;;;;11.00;9.25;;;;;;;;5084178;27;45612;-69
2024/02/18 02:16:21;;;;;;;;;14.00;10.00;;;;;;;;5081057;27;45604;-69
2024/02/18 02:18:46;;;;;;;;;13.00;10.67;;;;;;;;5080055;27;45318;-69
2024/02/18 02:21:11;;;;;;;;;12.00;10.00;;;;;;;;5079256;27;45428;-69
2024/02/18 02:23:36;;;;;;;;;10.00;9.33;;;;;;;;5080374;27;45321;-69
2024/02/18 02:26:02;;;;;;;;;10.00;10.00;;;;;;;;5079849;27;45629;-69
2024/02/18 02:28:28;;;;;;;;;12.33;10.33;;;;;;;;5079972;27;45560;-69
2024/02/18 02:30:55;;;;;;;;;8.75;8.75;;;;;;;;5079725;27;45367;-68
2024/02/18 02:33:22;;;;;;;;;9.75;9.50;;;;;;;;5080174;27;45441;-69
2024/02/18 02:35:48;;;;;;;;;11.75;9.50;;;;;;;;5079609;27;45587;-69
2024/02/18 02:38:13;;;;;;;;;9.75;9.75;;;;;;;;5080009;27;46206;-69
2024/02/18 02:40:38;;;;;;;;;11.00;11.00;;;;;;;;5079753;27;45348;-69
2024/02/18 02:43:04;;;;;;;;;11.00;8.75;;;;;;;;5084591;27;45286;-69
2024/02/18 02:45:29;;;;;;;;;12.00;9.50;;;;;;;;5079457;27;45335;-69
2024/02/18 02:47:54;;;;;;;;;12.00;10.33;;;;;;;;5079763;27;46088;-69
2024/02/18 02:50:20;;;;;;;;;9.75;9.25;;;;;;;;5078014;27;45507;-69
2024/02/18 02:52:45;;;;;;;;;10.25;9.25;;;;;;;;5079873;27;45385;-69
2024/02/18 02:55:10;;;;;;;;;12.00;10.00;;;;;;;;5079631;27;45359;-68
2024/02/18 02:57:36;;;;;;;;;11.00;11.00;;;;;;;;5072310;27;45637;-69
2024/02/18 03:00:08;;;;;;;;;13.00;11.00;;;;;;;;5079395;27;45368;-69
2024/02/18 03:02:34;;;;;;;;;6.50;5.00;;;;;;;;5073713;28;45418;-69
2024/02/18 03:04:59;;;;;;;;;11.00;10.00;;;;;;;;5079520;27;45440;-68
2024/02/18 03:07:24;;;;;;;;;7.33;7.33;;;;;;;;5078710;27;46028;-69
2024/02/18 03:09:49;;;;;;;;;10.00;9.75;;;;;;;;5079321;27;45515;-69
2024/02/18 03:12:15;;;;;;;;;9.00;9.00;;;;;;;;5084169;27;45470;-69
2024/02/18 03:14:40;;;;;;;;;10.00;7.00;;;;;;;;5079381;27;45546;-69
2024/02/18 03:17:05;;;;;;;;;11.00;10.00;;;;;;;;5079046;27;46128;-69
2024/02/18 03:19:30;;;;;;;;;6.67;6.00;;;;;;;;5079102;27;45391;-69
2024/02/18 03:21:56;;;;;;;;;9.25;8.75;;;;;;;;5077838;27;45565;-69
2024/02/18 03:24:21;;;;;;;;;10.00;10.00;;;;;;;;5079414;27;45504;-69
2024/02/18 03:26:48;;;;;;;;;9.67;9.00;;;;;;;;5078976;27;45365;-69
2024/02/18 03:29:13;;;;;;;;;9.00;7.50;;;;;;;;5079144;27;45544;-69
2024/02/18 03:31:38;;;;;;;;;13.33;9.00;;;;;;;;5079209;27;45281;-69
2024/02/18 03:34:03;;;;;;;;;10.33;6.67;;;;;;;;5079073;27;45239;-69
2024/02/18 03:36:30;;;;;;;;;10.00;9.00;;;;;;;;5078722;27;47229;-69
2024/02/18 03:38:56;;;;;;;;;9.50;7.25;;;;;;;;5079084;27;45266;-69
2024/02/18 03:41:21;;;;;;;;;9.00;7.33;;;;;;;;5078928;27;45301;-69
2024/02/18 03:43:46;;;;;;;;;9.67;9.67;;;;;;;;5079773;27;45538;-69
2024/02/18 03:46:11;;;;;;;;;7.33;6.00;;;;;;;;5078808;27;45412;-69
2024/02/18 03:48:36;;;;;;;;;10.67;8.67;;;;;;;;5079084;28;45322;-69
2024/02/18 03:51:01;;;;;;;;;6.67;6.67;;;;;;;;5073393;27;45461;-69
2024/02/18 03:53:27;;;;;;;;;6.00;6.00;;;;;;;;5077152;27;45561;-69
2024/02/18 03:55:52;;;;;;;;;9.00;6.00;;;;;;;;5092708;27;46736;-69
2024/02/18 03:58:17;;;;;;;;;11.00;10.00;;;;;;;;5079199;27;45415;-69
2024/02/18 04:00:45;;;;;;;;;12.00;9.67;;;;;;;;5078557;27;45309;-69
2024/02/18 04:03:11;;;;;;;;;10.50;8.25;;;;;;;;5069092;28;45417;-69
2024/02/18 04:05:36;;;;;;;;;8.00;5.75;;;;;;;;5078140;27;45352;-69
2024/02/18 04:08:01;;;;;;;;;11.00;8.00;;;;;;;;5078716;27;45394;-69
2024/02/18 04:10:26;;;;;;;;;11.00;9.00;;;;;;;;5077149;27;45606;-69
2024/02/18 04:12:52;;;;;;;;;10.00;10.00;;;;;;;;5078416;28;45538;-69
2024/02/18 04:15:17;;;;;;;;;8.33;8.33;;;;;;;;5078489;27;45688;-69
2024/02/18 04:17:42;;;;;;;;;7.67;7.67;;;;;;;;5079461;27;45423;-69
2024/02/18 04:20:09;;;;;;;;;9.67;8.67;;;;;;;;5079364;27;45403;-69
2024/02/18 04:22:34;;;;;;;;;9.25;9.00;;;;;;;;5080449;27;45373;-69
2024/02/18 04:25:00;;;;;;;;;10.00;10.00;;;;;;;;5081906;27;45440;-69
2024/02/18 04:27:25;;;;;;;;;10.00;8.75;;;;;;;;5081783;27;45554;-69
2024/02/18 04:29:51;;;;;;;;;9.67;8.00;;;;;;;;5082121;27;45389;-69
2024/02/18 04:32:16;;;;;;;;;8.00;8.00;;;;;;;;5087079;27;45316;-69
2024/02/18 04:34:41;;;;;;;;;11.25;10.00;;;;;;;;5081567;27;46199;-69
2024/02/18 04:37:06;;;;;;;;;10.00;9.00;;;;;;;;5081899;27;45416;-69
2024/02/18 04:39:32;;;;;;;;;9.33;8.33;;;;;;;;5081763;27;45302;-69
2024/02/18 04:41:57;;;;;;;;;10.00;9.67;;;;;;;;5081546;27;45484;-69
2024/02/18 04:44:22;;;;;;;;;3.00;1.00;;;;;;;;5081786;27;46194;-69
2024/02/18 04:46:47;;;;;;;;;10.33;9.00;;;;;;;;5086150;27;45383;-69
2024/02/18 04:49:14;;;;;;;;;10.00;9.67;;;;;;;;5081883;27;45346;-69
2024/02/18 04:51:39;;;;;;;;;11.00;9.50;;;;;;;;5080910;27;45683;-69
2024/02/18 04:54:04;;;;;;;;;8.67;6.00;;;;;;;;5081461;27;46229;-69
2024/02/18 04:56:29;;;;;;;;;9.33;7.33;;;;;;;;5080180;27;45346;-69
2024/02/18 04:58:54;;;;;;;;;8.67;8.00;;;;;;;;5081613;27;45991;-69
2024/02/18 05:01:20;;;;;;;;;13.00;10.00;;;;;;;;5083612;27;45369;-69
2024/02/18 05:03:45;;;;;;;;;9.00;8.67;;;;;;;;5083755;27;45488;-69
2024/02/18 05:06:10;;;;;;;;;8.00;8.00;;;;;;;;5081372;27;45408;-69
2024/02/18 05:08:36;;;;;;;;;8.50;8.00;;;;;;;;5081649;27;45458;-69
2024/02/18 05:11:01;;;;;;;;;6.00;4.25;;;;;;;;5079627;27;45620;-69
2024/02/18 05:13:26;;;;;;;;;9.33;8.00;;;;;;;;5081195;27;45433;-69
2024/02/18 05:15:51;;;;;;;;;8.33;8.33;;;;;;;;5081070;27;45476;-69
2024/02/18 05:18:17;;;;;;;;;9.00;8.00;;;;;;;;5081298;27;45321;-69
2024/02/18 05:20:42;;;;;;;;;9.00;6.25;;;;;;;;5079097;27;45448;-69
2024/02/18 05:23:07;;;;;;;;;7.33;7.33;;;;;;;;5080252;27;45477;-69
2024/02/18 05:25:33;;;;;;;;;8.33;8.00;;;;;;;;5081346;27;45551;-69
2024/02/18 05:27:58;;;;;;;;;5.25;5.00;;;;;;;;5080927;27;45309;-69
2024/02/18 05:30:23;;;;;;;;;9.67;7.33;;;;;;;;5080256;27;45373;-69
2024/02/18 05:32:49;;;;;;;;;6.00;5.33;;;;;;;;5080813;27;46153;-69
2024/02/18 05:35:14;;;;;;;;;9.00;9.00;;;;;;;;5080676;27;45294;-69
2024/02/18 05:37:39;;;;;;;;;7.33;7.33;;;;;;;;5081234;27;45386;-69
2024/02/18 05:40:06;;;;;;;;;7.33;7.33;;;;;;;;5080688;27;45468;-69
2024/02/18 05:42:31;;;;;;;;;7.00;6.00;;;;;;;;5080423;27;46300;-69
2024/02/18 05:44:56;;;;;;;;;10.00;8.67;;;;;;;;5080670;27;45642;-69
2024/02/18 05:47:21;;;;;;;;;4.67;4.33;;;;;;;;5081132;27;45389;-69
2024/02/18 05:49:46;;;;;;;;;6.00;5.00;;;;;;;;5080238;27;45385;-69
2024/02/18 05:52:12;;;;;;;;;11.75;9.00;;;;;;;;5080711;27;46288;-69
2024/02/18 05:54:37;;;;;;;;;9.33;8.33;;;;;;;;5077151;27;45596;-69
2024/02/18 05:57:03;;;;;;;;;7.00;5.00;;;;;;;;5079815;27;45391;-69
2024/02/18 05:59:28;;;;;;;;;5.25;5.00;;;;;;;;5079175;27;45344;-69
2024/02/18 06:01:53;;;;;;;;;8.67;6.67;;;;;;;;5081040;27;46300;-69
2024/02/18 06:04:19;;;;;;;;;8.00;8.00;;;;;;;;5080378;27;45393;-69
2024/02/18 06:06:44;;;;;;;;;5.75;5.00;;;;;;;;5080316;27;45428;-69
2024/02/18 06:09:10;;;;;;;;;6.33;6.33;;;;;;;;5080449;27;45694;-69
2024/02/18 06:11:36;;;;;;;;;8.00;8.00;;;;;;;;5078455;27;46508;-69
2024/02/18 06:14:02;;;;;;;;;6.50;6.50;;;;;;;;5080288;27;45707;-69
2024/02/18 06:16:27;;;;;;;;;11.00;8.00;;;;;;;;5080326;27;45353;-69
2024/02/18 06:18:52;;;;;;;;;5.00;5.00;;;;;;;;5080290;27;45392;-69
2024/02/18 06:21:20;;;;;;;;;1.67;1.67;;;;;;;;5078215;27;46190;-69
2024/02/18 06:23:46;;;;;;;;;10.50;8.50;;;;;;;;5080226;27;45293;-69
2024/02/18 06:26:11;;;;;;;;;4.33;4.00;;;;;;;;5080186;27;45255;-69
2024/02/18 06:28:37;;;;;;;;;8.00;6.67;;;;;;;;5076308;27;45599;-69
2024/02/18 06:31:02;;;;;;;;;9.50;5.75;;;;;;;;5082017;27;47157;-69
2024/02/18 06:33:28;;;;;;;;;6.75;4.25;;;;;;;;5079891;27;45405;-69
2024/02/18 06:35:53;;;;;;;;;7.50;5.00;;;;;;;;5079836;27;45530;-69
2024/02/18 06:38:19;;;;;;;;;6.00;5.00;;;;;;;;5079912;27;45621;-69
2024/02/18 06:40:44;;;;;;;;;5.33;5.00;;;;;;;;5079265;27;45571;-69
2024/02/18 06:43:09;;;;;;;;;6.00;5.00;;;;;;;;5079259;27;45336;-69
2024/02/18 06:45:34;;;;;;;;;4.33;4.00;;;;;;;;5079899;27;45527;-69
2024/02/18 06:47:59;;;;;;;;;9.33;7.00;;;;;;;;5079893;27;45630;-69
2024/02/18 06:50:24;;;;;;;;;6.33;5.00;;;;;;;;5079193;27;45735;-69
2024/02/18 06:52:50;;;;;;;;;6.33;5.00;;;;;;;;5079714;27;45463;-69
2024/02/18 06:55:15;;;;;;;;;8.67;5.00;;;;;;;;5079832;28;45361;-69
2024/02/18 06:57:46;;;;;;;;;6.67;5.00;;;;;;;;5078867;27;45501;-69
2024/02/18 07:00:11;;;;;;;;;8.25;5.50;;;;;;;;5079503;27;45977;-69
2024/02/18 07:02:37;;;;;;;;;7.75;6.75;;;;;;;;5082352;27;45607;-69
2024/02/18 07:05:05;;;;;;;;;6.50;6.00;;;;;;;;5079643;27;45394;-68
2024/02/18 07:07:30;;;;;;;;;7.00;5.50;;;;;;;;5079387;27;45564;-68
2024/02/18 07:09:56;;;;;;;;;5.67;4.33;;;;;;;;5079343;27;46253;-69
2024/02/18 07:12:21;;;;;;;;;8.67;6.00;;;;;;;;5076883;27;45481;-69
2024/02/18 07:14:46;;;;;;;;;6.00;5.75;;;;;;;;5083593;27;45351;-69
2024/02/18 07:17:12;;;;;;;;;6.75;5.25;;;;;;;;5079335;28;46095;-69
2024/02/18 07:19:37;;;;;;;;;8.25;6.00;;;;;;;;5079159;27;46996;-69
2024/02/18 07:22:04;;;;;;;;;6.67;6.33;;;;;;;;5079110;27;45472;-69
2024/02/18 07:24:29;;;;;;;;;8.00;5.75;;;;;;;;5079409;28;45565;-69
2024/02/18 07:26:54;;;;;;;;;5.33;4.67;;;;;;;;5079081;27;45536;-69
2024/02/18 07:29:19;;;;;;;;;5.33;5.33;;;;;;;;5079158;27;45416;-68
2024/02/18 07:31:44;;;;;;;;;6.33;5.00;;;;;;;;5078658;27;45331;-67
2024/02/18 07:34:10;;;;;;;;;7.25;5.50;;;;;;;;5076904;27;45679;-67
2024/02/18 07:36:35;;;;;;;;;6.50;5.50;;;;;;;;5087130;27;45354;-67
2024/02/18 07:39:00;;;;;;;;;4.00;2.67;;;;;;;;5094087;27;45499;-67
2024/02/18 07:41:26;;;;;;;;;7.00;5.00;;;;;;;;5067342;27;45300;-67
2024/02/18 07:43:51;;;;;;;;;8.75;8.75;;;;;;;;5072496;27;45393;-67
2024/02/18 07:46:17;;;;;;;;;5.00;5.00;;;;;;;;5095029;27;45501;-67
2024/02/18 07:48:42;;;;;;;;;10.50;9.25;;;;;;;;5099484;27;45259;-67
2024/02/18 07:51:09;;;;;;;;;6.00;3.67;;;;;;;;5085961;27;45326;-67
2024/02/18 07:53:34;;;;;;;;;4.50;4.50;;;;;;;;5086715;27;45557;-67
2024/02/18 07:55:59;;;;;;;;;5.00;5.00;;;;;;;;5082143;27;45316;-67
2024/02/18 07:58:24;;;;;;;;;6.33;5.00;;;;;;;;5079459;27;46568;-67
2024/02/18 08:00:50;;;;;;;;;6.33;5.00;;;;;;;;5082484;27;45506;-67
2024/02/18 08:03:15;;;;;;;;;5.33;5.33;;;;;;;;5082600;27;45373;-67
2024/02/18 08:05:41;;;;;;;;;5.33;4.00;;;;;;;;5086399;27;45468;-68
2024/02/18 08:08:07;;;;;;;;;5.25;5.00;;;;;;;;5080630;27;47265;-67
2024/02/18 08:10:32;;;;;;;;;5.25;5.25;;;;;;;;5079313;27;45398;-67
2024/02/18 08:12:57;;;;;;;;;8.33;6.67;;;;;;;;5078357;27;45299;-67
2024/02/18 08:15:22;;;;;;;;;6.00;5.00;;;;;;;;5081917;27;45415;-67
2024/02/18 08:17:48;;;;;;;;;4.00;4.00;;;;;;;;5082123;27;46141;-69
2024/02/18 08:20:13;;;;;;;;;3.67;3.67;;;;;;;;5080402;27;45417;-67
2024/02/18 08:22:38;;;;;;;;;9.00;8.00;;;;;;;;5080509;27;45347;-67
2024/02/18 08:25:04;;;;;;;;;8.00;8.00;;;;;;;;5082001;27;45353;-68
2024/02/18 08:27:29;;;;;;;;;6.50;4.75;;;;;;;;5080955;27;45405;-68
2024/02/18 08:29:54;;;;;;;;;3.00;3.00;;;;;;;;5080375;27;45500;-68
2024/02/18 08:32:20;;;;;;;;;7.00;5.33;;;;;;;;5082252;27;45496;-68
2024/02/18 08:34:45;;;;;;;;;6.00;5.00;;;;;;;;5079023;27;45762;-68
2024/02/18 08:37:10;;;;;;;;;4.33;4.33;;;;;;;;5080552;27;45529;-68
2024/02/18 08:39:35;;;;;;;;;5.67;4.00;;;;;;;;5081390;27;45255;-68
2024/02/18 08:42:00;;;;;;;;;6.00;5.00;;;;;;;;5080282;27;45459;-68
2024/02/18 08:44:25;;;;;;;;;5.67;4.33;;;;;;;;5081510;27;45297;-68
2024/02/18 08:46:51;;;;;;;;;5.33;3.67;;;;;;;;5081241;27;45224;-68
2024/02/18 08:49:16;;;;;;;;;5.50;5.50;;;;;;;;5081485;27;45297;-68
2024/02/18 08:51:41;;;;;;;;;7.33;7.33;;;;;;;;5081787;27;45418;-68
2024/02/18 08:54:06;;;;;;;;;3.67;3.67;;;;;;;;5081623;27;45297;-68
2024/02/18 08:56:32;;;;;;;;;7.33;5.00;;;;;;;;5080527;27;46207;-68
2024/02/18 08:58:57;;;;;;;;;7.50;4.00;;;;;;;;5081563;27;45417;-68
2024/02/18 09:01:22;;;;;;;;;4.00;3.33;;;;;;;;5080737;27;45313;-68
2024/02/18 09:03:47;;;;;;;;;4.67;4.33;;;;;;;;5080875;27;45243;-68
2024/02/18 09:06:13;;;;;;;;;5.67;5.67;;;;;;;;5078692;27;46096;-67
2024/02/18 09:08:38;;;;;;;;;4.00;4.00;;;;;;;;5090824;27;45357;-67
2024/02/18 09:11:03;;;;;;;;;6.00;4.25;;;;;;;;5081134;27;45757;-67
2024/02/18 09:13:29;;;;;;;;;5.25;4.75;;;;;;;;5081218;27;45314;-68
2024/02/18 09:15:54;;;;;;;;;9.25;6.00;;;;;;;;5079600;27;47157;-67
2024/02/18 09:18:19;;;;;;;;;5.67;5.00;;;;;;;;5081251;27;45361;-67
2024/02/18 09:20:44;;;;;;;;;7.33;7.33;;;;;;;;5081313;27;45355;-67
2024/02/18 09:23:10;;;;;;;;;7.00;5.75;;;;;;;;5080935;27;45392;-67
2024/02/18 09:25:35;;;;;;;;;5.00;5.00;;;;;;;;5081079;27;45916;-67
2024/02/18 09:28:00;;;;;;;;;6.33;6.33;;;;;;;;5080926;27;45475;-67
2024/02/18 09:30:25;;;;;;;;;6.67;6.00;;;;;;;;5080931;27;45383;-67
2024/02/18 09:32:51;;;;;;;;;7.25;7.25;;;;;;;;5079694;27;45522;-67
2024/02/18 09:35:17;;;;;;;;;9.00;9.00;;;;;;;;5077696;27;46098;-67
2024/02/18 09:37:42;;;;;;;;;6.75;6.25;;;;;;;;5080010;27;45406;-68
2024/02/18 09:40:08;;;;;;;;;6.75;6.75;;;;;;;;5076509;27;45472;-68
2024/02/18 09:42:34;;;;;;;;;8.00;6.25;;;;;;;;5084324;27;46174;-68
2024/02/18 09:45:02;;;;;;;;;5.25;5.00;;;;;;;;5083380;27;45624;-67
2024/02/18 09:47:28;;;;;;;;;6.50;6.50;;;;;;;;5080793;27;45362;-67
2024/02/18 09:49:54;;;;;;;;;6.75;5.25;;;;;;;;5080804;27;45469;-68
2024/02/18 09:52:19;;;;;;;;;4.00;4.00;;;;;;;;5077255;27;45420;-68
2024/02/18 09:54:45;;;;;;;;;8.00;4.75;;;;;;;;5081412;27;45425;-68
2024/02/18 09:57:10;;;;;;;;;6.25;6.25;;;;;;;;5083668;27;45575;-68
2024/02/18 09:59:35;;;;;;;;;5.00;5.00;;;;;;;;5079419;27;45646;-68
2024/02/18 10:02:01;;;;;;;;;5.00;5.00;;;;;;;;5086997;27;45586;-67
2024/02/18 10:04:28;;;;;;;;;9.00;5.50;;;;;;;;5074352;27;45591;-67
2024/02/18 10:06:54;;;;;;;;;4.00;3.00;;;;;;;;5079160;27;45484;-66
2024/02/18 10:09:19;;;;;;;;;4.50;3.75;;;;;;;;5087951;27;45354;-67
2024/02/18 10:11:45;;;;;;;;;6.00;4.00;;;;;;;;5083488;27;45341;-67
2024/02/18 10:14:10;;;;;;;;;6.00;4.00;;;;;;;;5093306;27;46376;-66
2024/02/18 10:16:38;;;;;;;;;5.00;4.00;;;;;;;;5079481;27;45417;-66
2024/02/18 10:19:08;;;;;;;;;5.25;4.00;;;;;;;;5096904;27;45407;-66
2024/02/18 10:21:33;;;;;;;;;5.00;5.00;;;;;;;;5076471;27;45404;-67
2024/02/18 10:23:59;;;;;;;;;6.25;5.25;;;;;;;;5092270;27;46669;-67
2024/02/18 10:26:25;;;;;;;;;7.25;5.00;;;;;;;;5069348;27;45388;-67
2024/02/18 10:28:51;;;;;;;;;5.00;5.00;;;;;;;;5080333;27;45364;-67
2024/02/18 10:31:17;;;;;;;;;5.75;5.75;;;;;;;;5081762;27;45288;-67
2024/02/18 10:33:42;;;;;;;;;8.67;8.67;;;;;;;;5100627;27;45405;-67
2024/02/18 10:36:08;;;;;;;;;9.00;7.00;;;;;;;;5083618;27;45327;-67
2024/02/18 10:38:35;;;;;;;;;6.50;5.75;;;;;;;;5091877;27;45326;-67
2024/02/18 10:41:04;;;;;;;;;11.00;8.75;;;;;;;;5082125;27;45572;-67
2024/02/18 10:43:30;;;;;;;;;9.00;8.50;;;;;;;;5080919;27;45413;-67
2024/02/18 10:45:55;;;;;;;;;6.00;6.00;;;;;;;;5096067;27;45373;-67
2024/02/18 10:48:21;;;;;;;;;10.25;7.00;;;;;;;;5090779;27;45403;-68
2024/02/18 10:50:49;;;;;;;;;11.00;9.00;;;;;;;;5079308;27;45475;-68
2024/02/18 10:53:53;;;;;;;;;7.00;7.00;;;;;;;;5089731;27;46527;-68
2024/02/18 10:56:19;;;;;;;;;10.75;10.00;;;;;;;;5025151;28;45687;-65
2024/02/18 10:58:50;;;;;;;;;7.25;6.50;;;;;;;;5031951;28;45455;-68
2024/02/18 11:01:17;;;;;;;;;9.75;7.25;;;;;;;;5049460;27;45429;-67
2024/02/18 11:03:47;;;;;;;;;11.50;6.00;;;;;;;;5076176;27;45452;-69
2024/02/18 11:06:13;;;;;;;;;9.75;7.25;;;;;;;;5077392;28;45509;-68
2024/02/18 11:08:40;;;;;;;;;10.25;8.25;;;;;;;;5066299;27;45442;-67
2024/02/18 11:11:06;;;;;;;;;8.00;6.75;;;;;;;;5074674;27;45578;-67
2024/02/18 11:13:32;;;;;;;;;11.50;9.00;;;;;;;;5072992;27;45642;-67
2024/02/18 11:15:59;;;;;;;;;7.00;5.50;;;;;;;;5078152;27;45382;-67
2024/02/18 11:18:25;;;;;;;;;4.75;4.75;;;;;;;;5080019;27;45452;-66
2024/02/18 11:20:50;;;;;;;;;4.50;4.50;;;;;;;;5078031;27;45546;-67
2024/02/18 11:23:15;;;;;;;;;5.00;3.50;;;;;;;;5079152;27;46528;-67
2024/02/18 11:25:42;;;;;;;;;9.33;6.67;;;;;;;;5075622;27;45436;-67
2024/02/18 11:28:07;;;;;;;;;6.00;5.00;;;;;;;;5077600;27;45409;-67
2024/02/18 11:30:33;;;;;;;;;10.00;7.25;;;;;;;;5078631;27;45751;-66
2024/02/18 11:32:58;;;;;;;;;7.67;7.67;;;;;;;;5079151;28;46191;-67
2024/02/18 11:35:24;;;;;;;;;13.00;8.00;;;;;;;;5069868;27;45336;-66
2024/02/18 11:37:49;;;;;;;;;7.67;7.67;;;;;;;;5075523;27;45403;-67
2024/02/18 11:40:18;;;;;;;;;10.00;8.50;;;;;;;;5074879;27;45545;-67
2024/02/18 11:42:45;;;;;;;;;8.75;5.50;;;;;;;;5075515;27;45849;-67
2024/02/18 11:45:10;;;;;;;;;7.00;6.00;;;;;;;;5075223;27;45756;-67
2024/02/18 11:47:36;;;;;;;;;7.00;6.00;;;;;;;;5075272;27;45548;-66
2024/02/18 11:50:01;;;;;;;;;7.00;6.25;;;;;;;;5074872;27;45766;-67
2024/02/18 11:52:26;;;;;;;;;12.00;11.00;;;;;;;;5075451;27;45910;-66
2024/02/18 11:54:52;;;;;;;;;6.00;5.75;;;;;;;;5074380;27;45755;-67
2024/02/18 11:57:17;;;;;;;;;6.00;6.00;;;;;;;;5072861;27;45718;-67
2024/02/18 11:59:42;;;;;;;;;6.00;5.00;;;;;;;;5073701;27;45475;-67
2024/02/18 12:02:07;;;;;;;;;11.75;8.25;;;;;;;;5075029;27;45899;-66
2024/02/18 12:04:33;;;;;;;;;8.33;7.00;;;;;;;;5073065;27;45889;-66
2024/02/18 12:06:59;;;;;;;;;6.75;6.50;;;;;;;;5074260;28;45940;-68
2024/02/18 12:09:26;;;;;;;;;6.00;5.00;;;;;;;;5073831;28;45476;-68
2024/02/18 12:11:51;;;;;;;;;10.50;8.25;;;;;;;;5073067;27;47291;-69
2024/02/18 12:14:20;;;;;;;;;4.50;3.00;;;;;;;;5075270;28;45518;-68
2024/02/18 12:16:45;;;;;;;;;5.50;5.50;;;;;;;;5073626;27;45758;-67
2024/02/18 12:19:11;;;;;;;;;4.00;3.75;;;;;;;;5074710;27;45725;-68
2024/02/18 12:21:36;;;;;;;;;5.00;5.00;;;;;;;;5075042;27;46301;-68
2024/02/18 12:24:01;;;;;;;;;5.33;4.67;;;;;;;;5073978;27;45705;-68
2024/02/18 12:26:27;;;;;;;;;5.75;4.50;;;;;;;;5074725;27;45787;-70
2024/02/18 12:28:52;;;;;;;;;3.75;3.75;;;;;;;;5074564;27;45476;-70
2024/02/18 12:31:17;;;;;;;;;5.00;4.00;;;;;;;;5075881;27;45655;-71
2024/02/18 12:33:43;;;;;;;;;6.25;4.00;;;;;;;;5074701;27;45570;-70
2024/02/18 12:36:08;;;;;;;;;5.00;3.00;;;;;;;;5068295;27;45491;-70
2024/02/18 12:38:33;;;;;;;;;3.25;3.25;;;;;;;;5074106;27;45534;-70
2024/02/18 12:40:59;;;;;;;;;4.00;4.00;;;;;;;;5077721;27;45438;-68
2024/02/18 12:43:25;;;;;;;;;2.00;2.00;;;;;;;;5077867;27;45419;-70
2024/02/18 12:45:50;;;;;;;;;4.00;4.00;;;;;;;;5077692;27;45937;-69
2024/02/18 12:48:16;;;;;;;;;4.00;3.00;;;;;;;;5077484;27;45535;-69
2024/02/18 12:50:41;;;;;;;;;4.00;4.00;;;;;;;;5076054;27;45468;-70
2024/02/18 12:53:06;;;;;;;;;6.67;3.67;;;;;;;;5098617;27;45711;-70
2024/02/18 12:55:34;;;;;;;;;5.67;4.00;;;;;;;;5098865;27;45462;-70
2024/02/18 12:57:59;;;;;;;;;4.75;4.00;;;;;;;;5075061;27;45650;-70
2024/02/18 13:00:25;;;;;;;;;4.33;4.00;;;;;;;;5069086;27;46087;-69
2024/02/18 13:02:54;;;;;;;;;3.00;3.00;;;;;;;;5076731;27;45453;-69
2024/02/18 13:05:19;;;;;;;;;4.75;4.25;;;;;;;;5073902;27;45446;-69
2024/02/18 13:07:55;;;;;;;;;4.75;3.50;;;;;;;;5077908;27;45538;-70
2024/02/18 13:10:20;;;;;;;;;5.00;4.00;;;;;;;;5085302;27;46170;-69
2024/02/18 13:12:45;;;;;;;;;4.50;4.00;;;;;;;;5076294;27;45912;-69
2024/02/18 13:15:10;;;;;;;;;3.00;3.00;;;;;;;;5079034;27;45559;-68
2024/02/18 13:17:36;;;;;;;;;3.67;3.67;;;;;;;;5069197;27;45511;-69
2024/02/18 13:20:01;;;;;;;;;4.00;3.00;;;;;;;;5077547;27;45386;-68
2024/02/18 13:22:27;;;;;;;;;4.00;3.00;;;;;;;;5090796;27;45580;-70
2024/02/18 13:24:52;;;;;;;;;3.50;3.50;;;;;;;;5091348;27;45466;-70
2024/02/18 13:27:17;;;;;;;;;3.00;3.00;;;;;;;;5068682;27;45704;-70
2024/02/18 13:29:43;;;;;;;;;4.33;3.33;;;;;;;;5077448;27;45628;-69
2024/02/18 13:32:08;;;;;;;;;3.00;1.75;;;;;;;;5070271;27;45780;-70
2024/02/18 13:34:33;;;;;;;;;3.33;3.33;;;;;;;;5090686;27;45634;-70
2024/02/18 13:36:59;;;;;;;;;6.00;4.00;;;;;;;;5077347;27;45942;-70
2024/02/18 13:39:24;;;;;;;;;4.75;2.25;;;;;;;;5091024;27;45920;-70
2024/02/18 13:41:50;;;;;;;;;3.00;3.00;;;;;;;;5072021;27;45520;-70
2024/02/18 13:44:15;;;;;;;;;4.33;2.00;;;;;;;;5065367;27;45483;-70
2024/02/18 13:46:41;;;;;;;;;2.75;2.75;;;;;;;;5075870;27;45440;-70
2024/02/18 13:49:06;;;;;;;;;5.00;4.00;;;;;;;;5075458;27;46548;-70
2024/02/18 13:51:32;;;;;;;;;4.75;3.50;;;;;;;;5075136;27;45647;-70
2024/02/18 13:53:57;;;;;;;;;4.00;3.00;;;;;;;;5068051;27;45433;-70
2024/02/18 13:56:23;;;;;;;;;9.50;4.00;;;;;;;;5075045;27;45917;-68
2024/02/18 13:58:48;;;;;;;;;4.75;2.50;;;;;;;;5075704;27;46269;-70
2024/02/18 14:01:13;;;;;;;;;5.00;5.00;;;;;;;;5076482;27;45604;-70
2024/02/18 14:03:40;;;;;;;;;7.00;6.00;;;;;;;;5075440;27;45802;-70
2024/02/18 14:06:06;;;;;;;;;3.00;3.00;;;;;;;;5075254;27;45643;-70
2024/02/18 14:08:31;;;;;;;;;3.25;3.00;;;;;;;;5082737;27;45803;-70
2024/02/18 14:10:56;;;;;;;;;4.67;4.67;;;;;;;;5069031;27;45827;-71
2024/02/18 14:13:23;;;;;;;;;6.00;6.00;;;;;;;;5074993;27;45484;-70
2024/02/18 14:15:53;;;;;;;;;5.50;4.50;;;;;;;;5079202;27;45854;-70
2024/02/18 14:18:18;;;;;;;;;4.00;4.00;;;;;;;;5083871;27;45903;-70
2024/02/18 14:20:43;;;;;;;;;5.33;3.00;;;;;;;;5079650;27;45773;-70
2024/02/18 14:23:09;;;;;;;;;4.75;4.75;;;;;;;;5082003;27;45695;-70
2024/02/18 14:25:34;;;;;;;;;4.00;4.00;;;;;;;;5076667;27;45512;-70
2024/02/18 14:28:00;;;;;;;;;6.00;6.00;;;;;;;;5075772;27;46607;-70